createdAt,value
2022-12-18T00:00:17.825Z,44
2022-12-18T00:05:15.435Z,44
2022-12-18T00:10:18.048Z,44
2022-12-18T00:15:17.823Z,44
2022-12-18T00:20:13.615Z,43
2022-12-18T00:25:18.429Z,44
2022-12-18T00:30:20.393Z,44
2022-12-18T00:35:18.283Z,43
2022-12-18T00:40:29.982Z,42
2022-12-18T00:45:26.665Z,43
2022-12-18T00:50:16.431Z,43
2022-12-18T00:55:18.027Z,43
2022-12-18T01:00:20.248Z,42
2022-12-18T01:05:18.121Z,43
2022-12-18T01:10:13.902Z,42
2022-12-18T01:15:15.609Z,42
2022-12-18T01:20:24.339Z,41
2022-12-18T01:25:16.031Z,41
2022-12-18T01:30:19.854Z,42
2022-12-18T01:35:15.525Z,42
2022-12-18T01:40:22.359Z,41
2022-12-18T01:45:16.103Z,42
2022-12-18T01:50:15.836Z,40
2022-12-18T01:55:17.491Z,41
2022-12-18T02:00:22.700Z,41
2022-12-18T02:05:18.407Z,40
2022-12-18T02:10:16.170Z,41
2022-12-18T02:15:20.031Z,42
2022-12-18T02:20:17.852Z,40
2022-12-18T02:25:17.566Z,40
2022-12-18T02:30:23.052Z,41
2022-12-18T02:35:13.932Z,41
2022-12-18T02:40:13.525Z,41
2022-12-18T02:45:20.497Z,41
2022-12-18T02:50:18.661Z,41
2022-12-18T02:55:18.460Z,41
2022-12-18T03:00:16.427Z,40
2022-12-18T03:05:16.116Z,41
2022-12-18T03:10:19.813Z,41
2022-12-18T03:15:22.053Z,41
2022-12-18T03:20:16.128Z,40
2022-12-18T03:25:15.767Z,41
2022-12-18T03:30:18.631Z,40
2022-12-18T03:35:22.616Z,40
2022-12-18T03:40:16.202Z,41
2022-12-18T03:45:17.958Z,41
2022-12-18T03:50:13.607Z,41
2022-12-18T03:55:20.728Z,41
2022-12-18T04:00:16.300Z,40
2022-12-18T04:05:13.928Z,39
2022-12-18T04:10:23.623Z,39
2022-12-18T04:15:16.326Z,40
2022-12-18T04:20:14.008Z,40
2022-12-18T04:25:17.608Z,40
2022-12-18T04:30:20.582Z,39
2022-12-18T04:35:14.616Z,40
2022-12-18T04:40:16.535Z,40
2022-12-18T04:45:18.278Z,40
2022-12-18T04:50:15.910Z,40
2022-12-18T04:55:21.801Z,40
2022-12-18T05:00:19.889Z,40
2022-12-18T05:05:15.565Z,39
2022-12-18T05:10:22.538Z,40
2022-12-18T05:15:20.465Z,41
2022-12-18T05:20:14.337Z,41
2022-12-18T05:25:16.000Z,42
2022-12-18T05:30:17.713Z,42
2022-12-18T05:35:16.344Z,41
2022-12-18T05:40:18.025Z,41
2022-12-18T05:45:15.769Z,42
2022-12-18T05:50:14.427Z,41
2022-12-18T05:55:14.127Z,41
2022-12-18T06:00:16.512Z,41
2022-12-18T06:05:17.911Z,42
2022-12-18T06:10:14.342Z,41
2022-12-18T06:15:22.420Z,42
2022-12-18T06:20:22.370Z,42
2022-12-18T06:25:14.532Z,41
2022-12-18T06:30:16.477Z,41
2022-12-18T06:35:22.899Z,40
2022-12-18T06:40:17.843Z,40
2022-12-18T06:45:17.605Z,40
2022-12-18T06:50:18.257Z,40
2022-12-18T06:55:20.136Z,40
2022-12-18T07:00:14.004Z,40
2022-12-18T07:05:28.574Z,40
2022-12-18T07:10:14.190Z,39
2022-12-18T07:15:15.901Z,39
2022-12-18T07:20:13.571Z,40
2022-12-18T07:25:16.234Z,40
2022-12-18T07:30:16.053Z,40
2022-12-18T07:35:25.459Z,40
2022-12-18T07:40:18.258Z,40
2022-12-18T07:45:22.448Z,39
2022-12-18T07:50:16.247Z,41
2022-12-18T07:55:17.859Z,40
2022-12-18T08:00:16.255Z,41
2022-12-18T08:05:16.280Z,41
2022-12-18T08:10:21.620Z,41
2022-12-18T08:15:20.066Z,41
2022-12-18T08:20:18.025Z,41
2022-12-18T08:25:21.803Z,40
2022-12-18T08:30:18.085Z,45
2022-12-18T08:35:18.955Z,46
2022-12-18T08:40:26.160Z,46
2022-12-18T08:45:16.514Z,46
2022-12-18T08:50:24.273Z,45
2022-12-18T08:55:16.582Z,45
2022-12-18T09:00:15.389Z,44
2022-12-18T09:05:18.437Z,44
2022-12-18T09:10:20.851Z,44
2022-12-18T09:15:22.545Z,47
2022-12-18T09:20:16.533Z,44
2022-12-18T09:25:24.127Z,45
2022-12-18T09:30:13.887Z,46
2022-12-18T09:35:15.473Z,47
2022-12-18T09:40:14.207Z,46
2022-12-18T09:45:18.475Z,46
2022-12-18T09:50:17.675Z,46
2022-12-18T09:55:14.765Z,46
2022-12-18T10:00:14.510Z,46
2022-12-18T10:05:22.390Z,45
2022-12-18T10:10:20.901Z,44
2022-12-18T10:15:20.710Z,46
2022-12-18T10:20:23.774Z,44
2022-12-18T10:25:18.431Z,44
2022-12-18T10:30:14.245Z,45
2022-12-18T10:35:15.943Z,48
2022-12-18T10:40:22.948Z,48
2022-12-18T10:45:14.878Z,51
2022-12-18T10:50:18.244Z,48
2022-12-18T10:55:18.074Z,47
2022-12-18T11:00:13.883Z,48
2022-12-18T11:05:18.434Z,48
2022-12-18T11:10:18.288Z,47
2022-12-18T11:15:23.026Z,48
2022-12-18T11:20:18.855Z,47
2022-12-18T11:25:51.718Z,46
2022-12-18T11:30:14.416Z,47
2022-12-18T11:35:19.808Z,47
2022-12-18T11:40:15.668Z,47
2022-12-18T11:45:16.557Z,47
2022-12-18T11:50:20.522Z,46
2022-12-18T11:55:18.518Z,47
2022-12-18T12:00:14.391Z,46
2022-12-18T12:05:14.249Z,46
2022-12-18T12:10:20.123Z,46
2022-12-18T12:15:16.078Z,46
2022-12-18T12:20:13.961Z,45
2022-12-18T12:25:19.861Z,46
2022-12-18T12:30:19.863Z,45
2022-12-18T12:35:22.346Z,46
2022-12-18T12:41:18.998Z,46
2022-12-18T12:45:17.925Z,46
2022-12-18T12:50:15.389Z,45
2022-12-18T12:55:15.095Z,45
2022-12-18T13:00:19.150Z,46
2022-12-18T13:05:22.991Z,44
2022-12-18T13:10:19.394Z,44
2022-12-18T13:15:32.388Z,45
2022-12-18T13:20:17.587Z,46
2022-12-18T13:25:14.604Z,47
2022-12-18T13:30:18.560Z,47
2022-12-18T13:35:24.466Z,47
2022-12-18T13:40:18.409Z,47
2022-12-18T13:45:16.107Z,47
2022-12-18T13:50:17.212Z,47
2022-12-18T13:55:14.474Z,47
2022-12-18T14:00:21.065Z,47
2022-12-18T14:05:21.244Z,46
2022-12-18T14:15:20.229Z,47
2022-12-18T14:20:16.125Z,47
2022-12-18T14:25:13.732Z,46
2022-12-18T14:30:14.421Z,46
2022-12-18T14:35:16.093Z,46
2022-12-18T14:40:27.109Z,46
2022-12-18T14:45:30.117Z,46
2022-12-18T14:50:17.885Z,45
2022-12-18T14:55:17.535Z,46
2022-12-18T15:00:14.295Z,47
2022-12-18T15:05:22.826Z,49
2022-12-18T15:10:16.952Z,48
2022-12-18T15:15:15.739Z,48
2022-12-18T15:20:21.985Z,48
2022-12-18T15:25:13.972Z,49
2022-12-18T15:30:18.396Z,46
2022-12-18T15:35:16.553Z,49
2022-12-18T15:40:20.076Z,48
2022-12-18T15:45:16.102Z,48
2022-12-18T15:50:17.793Z,46
2022-12-18T15:55:22.907Z,47
2022-12-18T16:00:15.714Z,48
2022-12-18T16:05:16.391Z,47
2022-12-18T16:10:18.506Z,46
2022-12-18T16:15:25.141Z,47
2022-12-18T16:20:13.869Z,46
2022-12-18T16:25:19.571Z,47
2022-12-18T16:30:14.401Z,47
2022-12-18T16:35:20.359Z,46
2022-12-18T16:40:18.202Z,45
2022-12-18T16:45:18.084Z,46
2022-12-18T16:50:20.775Z,45
2022-12-18T16:55:22.070Z,46
2022-12-18T17:00:17.751Z,46
2022-12-18T17:05:14.086Z,46
2022-12-18T17:10:13.746Z,47
2022-12-18T17:15:17.304Z,48
2022-12-18T17:20:28.405Z,47
2022-12-18T17:25:16.360Z,48
2022-12-18T17:30:14.438Z,47
2022-12-18T17:35:23.150Z,48
2022-12-18T17:40:20.131Z,48
2022-12-18T17:45:14.081Z,48
2022-12-18T17:50:17.837Z,48
2022-12-18T17:55:21.936Z,48
2022-12-18T18:00:18.677Z,47
2022-12-18T18:05:16.368Z,48
2022-12-18T18:10:14.142Z,48
2022-12-18T18:15:16.598Z,48
2022-12-18T18:20:23.061Z,49
2022-12-18T18:25:22.819Z,49
2022-12-18T18:30:14.164Z,48
2022-12-18T18:35:54.069Z,49
2022-12-18T18:40:14.389Z,49
2022-12-18T18:45:14.165Z,48
2022-12-18T18:50:22.498Z,49
2022-12-18T18:55:39.189Z,48
2022-12-18T19:00:18.440Z,48
2022-12-18T19:05:23.009Z,48
2022-12-18T19:10:23.028Z,49
2022-12-18T19:15:16.112Z,49
2022-12-18T19:20:16.647Z,48
2022-12-18T19:25:29.901Z,48
2022-12-18T19:30:14.005Z,48
2022-12-18T19:35:14.014Z,48
2022-12-18T19:40:26.277Z,46
2022-12-18T19:45:18.164Z,48
2022-12-18T19:50:16.716Z,48
2022-12-18T19:55:18.576Z,48
2022-12-18T20:00:26.394Z,47
2022-12-18T20:05:18.278Z,48
2022-12-18T20:10:26.675Z,48
2022-12-18T20:15:20.539Z,47
2022-12-18T20:20:18.534Z,47
2022-12-18T20:25:14.230Z,47
2022-12-18T20:30:24.151Z,47
2022-12-18T20:35:22.242Z,47
2022-12-18T20:40:14.278Z,47
2022-12-18T20:45:13.996Z,47
2022-12-18T20:50:22.265Z,46
2022-12-18T20:55:16.218Z,45
2022-12-18T21:00:22.592Z,46
2022-12-18T21:05:15.477Z,45
2022-12-18T21:10:16.112Z,45
2022-12-18T21:15:18.051Z,46
2022-12-18T21:20:19.071Z,45
2022-12-18T21:25:13.957Z,46
2022-12-18T21:30:14.259Z,45
2022-12-18T21:35:22.298Z,46
2022-12-18T21:40:22.640Z,45
2022-12-18T21:45:13.735Z,45
2022-12-18T21:50:15.904Z,44
2022-12-18T21:55:21.813Z,44
2022-12-18T22:00:19.620Z,45
2022-12-18T22:05:20.903Z,45
2022-12-18T22:10:26.126Z,45
2022-12-18T22:15:22.100Z,46
2022-12-18T22:20:20.420Z,46
2022-12-18T22:25:16.215Z,46
2022-12-18T22:30:17.900Z,46
2022-12-18T22:35:27.415Z,45
2022-12-18T22:40:25.721Z,46
2022-12-18T22:45:18.354Z,46
2022-12-18T22:50:16.342Z,44
2022-12-18T22:59:39.596Z,44
2022-12-18T23:04:41.674Z,44
2022-12-18T23:09:43.826Z,46
2022-12-18T23:14:45.852Z,44
2022-12-18T23:19:37.689Z,44
2022-12-18T23:24:39.751Z,45
2022-12-18T23:27:30.013Z,44
2022-12-18T23:32:26.951Z,45
2022-12-18T23:37:59.753Z,45
2022-12-18T23:42:31.128Z,44
2022-12-18T23:47:51.442Z,45
2022-12-18T23:52:25.018Z,44
2022-12-18T23:57:27.748Z,44
